Rawalpindi Weather



Rawalpindi's Current Weather

Temprature 19.71o haze

haze

Rain: 0 %

Min Temprature18o
Max Temprature21.67o
Humidity93
Wind Speed2.6 m/h
Sun Rise05:30:39
Sun Set18:42:07
Current Time: 21-Apr-2019 06:22:42
Lat/Lon: 33.6, 73.06




Rawalpindi's Geo Location



Rawalpindi's Weather Forecast

Time Overall Temp Min Temp Max Temp Humidity Wind Speed Rain
21-Apr-2019 (Sun)
08:00:00 clear sky 24.450 24.450 25.559 43 1.2 m/h 0 %
11:00:00 clear sky 29.020 29.020 29.850 29 2.16 m/h 0 %
14:00:00 clear sky 31.300 31.300 31.850 23 2.4 m/h 0 %
17:00:00 clear sky 31.370 31.370 31.650 23 2.54 m/h 0 %
20:00:00 clear sky 26.250 26.250 26.250 34 1.86 m/h 0 %
23:00:00 few clouds 24.870 24.870 24.870 36 2.83 m/h 0 %
22-Apr-2019 (Mon)
02:00:00 scattered clouds 22.970 22.970 22.970 44 2.41 m/h 0 %
05:00:00 scattered clouds 21.794 21.794 21.794 47 2.29 m/h 0 %
08:00:00 clear sky 26.616 26.616 26.616 36 1.79 m/h 0 %
11:00:00 clear sky 31.720 31.720 31.720 23 3.04 m/h 0 %
14:00:00 clear sky 34.015 34.015 34.015 19 3.56 m/h 0 %
17:00:00 clear sky 33.231 33.231 33.231 22 3.45 m/h 0 %
20:00:00 clear sky 27.150 27.150 27.150 33 1.85 m/h 0 %
23:00:00 clear sky 25.496 25.496 25.496 34 2.69 m/h 0 %
23-Apr-2019 (Tue)
02:00:00 clear sky 24.277 24.277 24.277 35 2.91 m/h 0 %
05:00:00 scattered clouds 23.696 23.696 23.696 37 3.11 m/h 0 %
08:00:00 overcast clouds 27.177 27.177 27.177 33 2.15 m/h 0 %
11:00:00 overcast clouds 32.050 32.050 32.050 20 3.83 m/h 0 %
14:00:00 broken clouds 35.150 35.150 35.150 15 3.34 m/h 0 %
17:00:00 broken clouds 34.550 34.550 34.550 19 2.28 m/h 0 %
20:00:00 overcast clouds 28.928 28.928 28.928 32 0.78 m/h 0 %
23:00:00 broken clouds 27.450 27.450 27.450 28 3.35 m/h 0 %
24-Apr-2019 (Wed)
02:00:00 broken clouds 26.882 26.882 26.882 30 3.54 m/h 0 %
05:00:00 light rain 25.114 25.114 25.114 35 2.65 m/h 38 %
08:00:00 overcast clouds 28.450 28.450 28.450 32 3.36 m/h 0 %
11:00:00 overcast clouds 34.708 34.708 34.708 18 3.26 m/h 0 %
14:00:00 broken clouds 37.050 37.050 37.050 15 6.55 m/h 0 %
17:00:00 broken clouds 30.650 30.650 30.650 29 11.25 m/h 0 %
20:00:00 overcast clouds 29.055 29.055 29.055 33 4.44 m/h 0 %
23:00:00 overcast clouds 26.045 26.045 26.045 41 5.64 m/h 0 %
25-Apr-2019 (Thu)
02:00:00 overcast clouds 26.450 26.450 26.450 36 5.25 m/h 0 %
05:00:00 overcast clouds 24.102 24.102 24.102 43 2.12 m/h 0 %
08:00:00 overcast clouds 27.320 27.320 27.320 36 0.94 m/h 0 %
11:00:00 scattered clouds 33.390 33.390 33.390 21 0.61 m/h 0 %
14:00:00 clear sky 35.350 35.350 35.350 15 2.12 m/h 0 %
17:00:00 clear sky 35.211 35.211 35.211 14 1.53 m/h 0 %
20:00:00 clear sky 28.325 28.325 28.325 31 1.05 m/h 0 %
23:00:00 clear sky 26.943 26.943 26.943 24 3.62 m/h 0 %
26-Apr-2019 (Fri)
02:00:00 clear sky 24.732 24.732 24.732 27 2.85 m/h 0 %
05:00:00 scattered clouds 23.596 23.596 23.596 30 2.56 m/h 0 %


Rawalpindi's Tourist Spots

Parks and Zoos in Rawalpindi

Famous Cities (60)